This is the latest recevied weather packets stored in our database for station/object TA3HRJ-12. If no packets are shown the sender has not sent any weather packets the latest 10 day(s).
| Time | Temp. | Humidity | Pressure | Rain* | Wind** | Luminosity | Snow |
|---|---|---|---|---|---|---|---|
| 1788529794 | 35° C | 10% | 1027.4 hPa | - | - | - | - |
| 1788527994 | 36.11° C | 9% | 1027.4 hPa | - | - | - | - |
| 1788527094 | 45° C | 5% | 1027.5 hPa | - | - | - | - |
| 1788526194 | 41.11° C | 7% | 1027.5 hPa | - | - | - | - |
| 1788524393 | 34.44° C | 12% | 1027.7 hPa | - | - | - | - |
| 1788521693 | 36.11° C | 9% | 1028.1 hPa | - | - | - | - |
| 1788520793 | 34.44° C | 12% | 1028.1 hPa | - | - | - | - |
| 1788518091 | 34.44° C | 13% | 1028.2 hPa | - | - | - | - |
| 1788517192 | 32.78° C | 15% | 1028.2 hPa | - | - | - | - |
| 1788515391 | 31.67° C | 16% | 1028.4 hPa | - | - | - | - |
| 1788514490 | 31.11° C | 17% | 1028.5 hPa | - | - | - | - |
| 1788510890 | 30.56° C | 19% | 1028.5 hPa | - | - | - | - |
| 1788509990 | 29.44° C | 21% | 1028.6 hPa | - | - | - | - |
| 1788509090 | 30° C | 19% | 1028.5 hPa | - | - | - | - |
| 1788507290 | 27.78° C | 23% | 1028.5 hPa | - | - | - | - |
| 1788506389 | 27.22° C | 23% | 1028.4 hPa | - | - | - | - |
| 1788505489 | 28.33° C | 22% | 1028.4 hPa | - | - | - | - |
| 1788503689 | 25.56° C | 27% | 1028.3 hPa | - | - | - | - |
| 1788502789 | 25.56° C | 27% | 1028.1 hPa | - | - | - | - |
| 1788501889 | 24.44° C | 30% | 1027.8 hPa | - | - | - | - |
| 1788500089 | 24.44° C | 30% | 1027.7 hPa | - | - | - | - |
| 1788499188 | 23.89° C | 32% | 1027.8 hPa | - | - | - | - |
| 1788498288 | 23.33° C | 33% | 1027.7 hPa | - | - | - | - |
| 1788497388 | 22.78° C | 35% | 1027.7 hPa | - | - | - | - |
| 1788496488 | 22.22° C | 35% | 1027.5 hPa | - | - | - | - |
* Rain since midnight (hover to see other rain measurements)
** Current wind speed in m/s (hover to see current wind gust speed)